createdAt,value
2023-05-10T00:00:29.301Z,7.38
2023-05-10T00:02:55.881Z,7.60
2023-05-10T00:05:22.477Z,7.18
2023-05-10T00:07:49.047Z,7.18
2023-05-10T00:10:16.063Z,7.63
2023-05-10T00:12:44.002Z,7.60
2023-05-10T00:15:13.182Z,7.82
2023-05-10T00:17:39.924Z,7.13
2023-05-10T00:20:11.246Z,7.80
2023-05-10T00:22:40.294Z,7.90
2023-05-10T00:25:08.066Z,6.95
2023-05-10T00:27:37.222Z,5.93
2023-05-10T00:30:04.192Z,6.82
2023-05-10T00:32:34.298Z,6.25
2023-05-10T00:35:00.926Z,5.40
2023-05-10T00:37:29.707Z,5.72
2023-05-10T00:39:56.728Z,5.32
2023-05-10T00:42:25.888Z,4.65
2023-05-10T00:44:54.516Z,4.85
2023-05-10T00:47:26.061Z,4.75
2023-05-10T00:49:56.446Z,4.90
2023-05-10T00:52:24.541Z,5.28
2023-05-10T00:54:58.433Z,4.47
2023-05-10T00:57:25.553Z,4.35
2023-05-10T00:59:54.808Z,4.75
2023-05-10T01:02:21.548Z,5.25
2023-05-10T01:04:50.946Z,5.30
2023-05-10T01:07:25.687Z,4.70
2023-05-10T01:09:52.433Z,6.22
2023-05-10T01:12:32.053Z,6.22
2023-05-10T01:14:58.869Z,6.72
2023-05-10T01:17:25.717Z,6.95
2023-05-10T01:19:52.479Z,7.25
2023-05-10T01:22:36.540Z,6.65
2023-05-10T01:25:27.469Z,6.07
2023-05-10T01:28:02.751Z,6.40
2023-05-10T01:31:06.789Z,7.05
2023-05-10T01:33:43.501Z,6.60
2023-05-10T01:36:26.811Z,6.25
2023-05-10T01:39:21.242Z,6.68
2023-05-10T01:41:55.414Z,6.65
2023-05-10T01:44:33.916Z,6.40
2023-05-10T01:47:28.691Z,5.88
2023-05-10T01:50:05.435Z,5.47
2023-05-10T01:52:39.259Z,5.70
2023-05-10T01:55:13.620Z,6.32
2023-05-10T01:57:43.194Z,7.38
2023-05-10T02:00:14.541Z,7.30
2023-05-10T02:02:49.891Z,7.83
2023-05-10T02:05:18.098Z,9.05
2023-05-10T02:07:45.795Z,8.80
2023-05-10T02:10:16.304Z,8.65
2023-05-10T02:12:46.834Z,8.55
2023-05-10T02:15:17.623Z,7.22
2023-05-10T02:17:48.621Z,8.75
2023-05-10T02:20:18.116Z,9.00
2023-05-10T02:22:49.881Z,9.48
2023-05-10T02:25:21.149Z,8.60
2023-05-10T02:27:53.091Z,8.85
2023-05-10T02:30:24.469Z,9.52
2023-05-10T02:32:53.989Z,9.50
2023-05-10T02:35:28.233Z,9.85
2023-05-10T02:37:55.871Z,10.65
2023-05-10T02:40:28.645Z,10.07
2023-05-10T02:43:03.480Z,10.60
2023-05-10T02:45:55.102Z,9.57
2023-05-10T02:48:21.807Z,11.50
2023-05-10T02:50:52.168Z,12.27
2023-05-10T02:53:44.007Z,11.45
2023-05-10T02:56:18.100Z,13.55
2023-05-10T02:58:44.872Z,12.40
2023-05-10T03:01:11.607Z,12.55
2023-05-10T03:03:47.530Z,12.23
2023-05-10T03:06:14.493Z,12.73
2023-05-10T03:08:41.154Z,13.05
2023-05-10T03:11:38.447Z,12.80
2023-05-10T03:14:10.134Z,13.18
2023-05-10T03:17:07.147Z,12.20
2023-05-10T03:19:44.844Z,13.77
2023-05-10T03:22:13.174Z,13.25
2023-05-10T03:24:44.139Z,12.93
2023-05-10T03:27:13.639Z,12.82
2023-05-10T03:29:40.836Z,13.45
2023-05-10T03:32:07.519Z,13.50
2023-05-10T03:34:43.496Z,13.93
2023-05-10T03:37:15.172Z,13.10
2023-05-10T03:39:42.285Z,12.63
2023-05-10T03:42:12.811Z,13.18
2023-05-10T03:44:41.637Z,13.23
2023-05-10T03:47:09.290Z,12.05
2023-05-10T03:49:38.145Z,12.88
2023-05-10T03:52:07.303Z,12.15
2023-05-10T03:54:34.552Z,11.18
2023-05-10T03:57:05.818Z,12.10
2023-05-10T03:59:34.925Z,11.02
2023-05-10T04:02:04.632Z,11.05
2023-05-10T04:04:31.284Z,10.52
2023-05-10T04:06:58.698Z,9.98
2023-05-10T04:09:26.501Z,10.00
2023-05-10T04:11:55.670Z,10.48
2023-05-10T04:14:27.884Z,9.73
2023-05-10T04:16:54.513Z,8.68
2023-05-10T04:19:21.179Z,8.98
2023-05-10T04:21:57.104Z,9.68
2023-05-10T04:24:35.600Z,10.18
2023-05-10T04:27:04.617Z,8.70
2023-05-10T04:29:36.533Z,9.48
2023-05-10T04:32:05.364Z,10.18
2023-05-10T04:34:32.323Z,8.30
2023-05-10T04:37:04.212Z,9.30
2023-05-10T04:39:32.230Z,9.55
2023-05-10T04:42:01.793Z,8.73
2023-05-10T04:44:28.655Z,9.10
2023-05-10T04:46:55.249Z,10.50
2023-05-10T04:49:22.595Z,9.43
2023-05-10T04:51:49.141Z,9.52
2023-05-10T04:54:15.869Z,9.60
2023-05-10T04:56:42.423Z,9.65
2023-05-10T04:59:09.105Z,10.25
2023-05-10T05:01:35.738Z,9.73
2023-05-10T05:04:02.565Z,10.18
2023-05-10T05:06:29.196Z,11.02
2023-05-10T05:08:55.806Z,10.75
2023-05-10T05:11:22.361Z,10.60
2023-05-10T05:13:48.946Z,10.70
2023-05-10T05:16:15.903Z,10.32
2023-05-10T05:18:42.484Z,11.35
2023-05-10T05:21:19.829Z,10.98
2023-05-10T05:23:46.960Z,11.15
2023-05-10T05:26:13.614Z,12.02
2023-05-10T05:28:40.557Z,10.82
2023-05-10T05:31:10.977Z,11.73
2023-05-10T05:33:38.054Z,13.15
2023-05-10T05:36:06.275Z,12.32
2023-05-10T05:38:33.199Z,12.30
2023-05-10T05:40:59.761Z,13.38
2023-05-10T05:43:26.466Z,11.32
2023-05-10T05:45:54.783Z,11.82
2023-05-10T05:48:21.778Z,12.75
2023-05-10T05:50:48.431Z,13.50
2023-05-10T05:53:15.299Z,12.77
2023-05-10T05:55:51.278Z,13.20
2023-05-10T05:58:17.840Z,11.57
2023-05-10T06:00:44.525Z,11.98
2023-05-10T06:03:11.464Z,12.60
2023-05-10T06:05:38.188Z,10.57
2023-05-10T06:08:04.994Z,11.57
2023-05-10T06:10:31.589Z,11.90
2023-05-10T06:12:58.220Z,12.85
2023-05-10T06:15:24.845Z,14.40
2023-05-10T06:17:51.888Z,14.95
2023-05-10T06:20:18.670Z,14.70
2023-05-10T06:22:45.407Z,14.70
2023-05-10T06:25:12.361Z,16.13
2023-05-10T06:27:38.932Z,14.85
2023-05-10T06:30:12.997Z,14.93
2023-05-10T06:32:42.396Z,13.32
2023-05-10T06:35:09.539Z,15.38
2023-05-10T06:37:36.081Z,14.93
2023-05-10T06:40:02.726Z,15.20
2023-05-10T06:42:29.310Z,14.77
2023-05-10T06:44:55.939Z,14.27
2023-05-10T06:47:22.943Z,16.60
2023-05-10T06:49:49.538Z,16.73
2023-05-10T06:52:16.321Z,16.30
2023-05-10T06:54:43.028Z,16.40
2023-05-10T06:57:23.324Z,18.10
2023-05-10T06:59:57.070Z,19.45
2023-05-10T07:02:23.819Z,18.33
2023-05-10T07:04:51.295Z,18.00
2023-05-10T07:07:18.084Z,18.67
2023-05-10T07:09:46.905Z,18.52
2023-05-10T07:12:15.354Z,18.33
2023-05-10T07:14:43.040Z,18.38
2023-05-10T07:17:09.877Z,18.58
2023-05-10T07:19:36.833Z,16.67
2023-05-10T07:22:03.640Z,18.95
2023-05-10T07:24:32.015Z,18.45
2023-05-10T07:26:58.594Z,18.45
2023-05-10T07:29:25.190Z,17.20
2023-05-10T07:31:51.754Z,18.33
2023-05-10T07:34:18.365Z,16.75
2023-05-10T07:36:45.032Z,17.42
2023-05-10T07:39:16.189Z,16.50
2023-05-10T07:41:45.131Z,16.63
2023-05-10T07:44:11.659Z,14.75
2023-05-10T07:46:38.377Z,15.95
2023-05-10T07:49:05.513Z,16.05
2023-05-10T07:51:32.612Z,14.88
2023-05-10T07:53:59.213Z,14.23
2023-05-10T07:56:33.544Z,11.70
2023-05-10T07:59:01.051Z,13.27
2023-05-10T08:01:31.067Z,13.82
2023-05-10T08:03:57.671Z,11.98
2023-05-10T08:06:24.449Z,11.60
2023-05-10T08:08:51.496Z,11.10
2023-05-10T08:11:18.559Z,11.20
2023-05-10T08:13:49.746Z,11.27
2023-05-10T08:16:17.576Z,11.07
2023-05-10T08:18:46.196Z,12.35
2023-05-10T08:21:12.882Z,10.50
2023-05-10T08:23:39.438Z,10.18
2023-05-10T08:26:06.499Z,10.80
2023-05-10T08:28:33.099Z,10.43
2023-05-10T08:30:59.716Z,10.98
2023-05-10T08:33:26.757Z,10.52
2023-05-10T08:35:53.387Z,10.52
2023-05-10T08:38:20.032Z,9.43
2023-05-10T08:40:48.081Z,9.98
2023-05-10T08:43:18.627Z,9.85
2023-05-10T08:45:48.957Z,9.90
2023-05-10T08:48:17.341Z,10.07
2023-05-10T08:50:45.888Z,11.38
2023-05-10T08:53:15.492Z,11.80
2023-05-10T08:55:43.569Z,13.45
2023-05-10T08:58:10.518Z,13.82
2023-05-10T09:00:38.471Z,13.43
2023-05-10T09:03:06.598Z,14.05
2023-05-10T09:05:33.493Z,14.02
2023-05-10T09:08:01.473Z,14.75
2023-05-10T09:10:29.034Z,14.40
2023-05-10T09:12:59.332Z,14.20
2023-05-10T09:15:26.519Z,14.18
2023-05-10T09:17:53.299Z,15.95
2023-05-10T09:20:20.239Z,14.20
2023-05-10T09:22:46.946Z,15.10
2023-05-10T09:25:16.468Z,15.75
2023-05-10T09:27:47.175Z,14.43
2023-05-10T09:30:23.793Z,14.45
2023-05-10T09:32:51.405Z,14.65
2023-05-10T09:35:20.034Z,13.63
2023-05-10T09:37:49.300Z,14.20
2023-05-10T09:40:21.359Z,15.88
2023-05-10T09:42:56.702Z,14.50
2023-05-10T09:45:25.598Z,14.55
2023-05-10T09:47:52.797Z,13.82
2023-05-10T09:50:21.379Z,14.27
2023-05-10T09:52:49.119Z,14.80
2023-05-10T09:55:19.049Z,14.52
2023-05-10T09:57:46.835Z,13.10
2023-05-10T10:00:18.777Z,15.02
2023-05-10T10:02:56.296Z,15.35
2023-05-10T10:05:29.714Z,14.00
2023-05-10T10:07:58.425Z,15.57
2023-05-10T10:10:28.962Z,13.35
2023-05-10T10:12:56.634Z,13.75
2023-05-10T10:15:24.018Z,13.63
2023-05-10T10:17:51.892Z,12.95
2023-05-10T10:20:23.160Z,13.77
2023-05-10T10:22:50.149Z,16.50
2023-05-10T10:25:18.534Z,14.13
2023-05-10T10:27:54.243Z,14.88
2023-05-10T10:30:37.237Z,14.38
2023-05-10T10:33:32.108Z,15.43
2023-05-10T10:36:03.473Z,14.63
2023-05-10T10:38:48.419Z,16.95
2023-05-10T10:41:30.083Z,15.18
2023-05-10T10:44:25.955Z,17.00
2023-05-10T10:47:01.824Z,16.70
2023-05-10T10:49:28.895Z,15.27
2023-05-10T10:52:34.699Z,16.48
2023-05-10T10:55:19.086Z,16.30
2023-05-10T10:57:47.065Z,14.85
2023-05-10T11:00:29.218Z,17.85
2023-05-10T11:03:19.580Z,15.93
2023-05-10T11:05:47.696Z,15.52
2023-05-10T11:08:31.383Z,15.48
2023-05-10T11:11:01.146Z,15.75
2023-05-10T11:13:29.063Z,15.15
2023-05-10T11:15:57.871Z,14.35
2023-05-10T11:18:30.152Z,15.27
2023-05-10T11:23:40.743Z,14.18
2023-05-10T11:26:11.858Z,14.80
2023-05-10T11:28:43.577Z,13.73
2023-05-10T11:31:10.704Z,14.55
2023-05-10T11:33:44.822Z,15.75
2023-05-10T11:36:19.882Z,14.45
2023-05-10T11:38:47.823Z,15.73
2023-05-10T11:41:16.338Z,13.80
2023-05-10T11:43:43.565Z,12.52
2023-05-10T11:46:14.121Z,11.00
2023-05-10T11:48:41.977Z,10.88
2023-05-10T11:51:12.165Z,11.10
2023-05-10T11:53:39.100Z,11.60
2023-05-10T11:56:10.167Z,10.77
2023-05-10T11:58:38.701Z,11.82
2023-05-10T12:01:07.291Z,11.07
2023-05-10T12:03:34.988Z,11.48
2023-05-10T12:06:02.878Z,10.45
2023-05-10T12:08:30.896Z,9.27
2023-05-10T12:11:11.203Z,9.70
2023-05-10T12:13:41.974Z,9.05
2023-05-10T12:16:26.545Z,9.55
2023-05-10T12:18:57.078Z,9.15
2023-05-10T12:21:24.032Z,10.02
2023-05-10T12:23:53.776Z,8.45
2023-05-10T12:26:29.482Z,8.95
2023-05-10T12:28:56.528Z,8.55
2023-05-10T12:31:23.372Z,8.63
2023-05-10T12:33:50.326Z,8.07
2023-05-10T12:36:18.769Z,9.20
2023-05-10T12:38:49.615Z,8.32
2023-05-10T12:41:18.167Z,7.82
2023-05-10T12:43:46.260Z,7.70
2023-05-10T12:46:17.967Z,6.97
2023-05-10T12:48:46.300Z,6.47
2023-05-10T12:51:16.116Z,5.93
2023-05-10T12:53:45.146Z,7.40
2023-05-10T12:56:12.716Z,6.18
2023-05-10T12:58:39.562Z,6.43
2023-05-10T13:01:06.579Z,6.07
2023-05-10T13:03:33.383Z,5.35
2023-05-10T13:06:00.035Z,6.68
2023-05-10T13:08:26.718Z,5.72
2023-05-10T13:10:53.366Z,5.90
2023-05-10T13:13:19.965Z,5.32
2023-05-10T13:15:46.593Z,6.00
2023-05-10T13:18:13.277Z,5.93
2023-05-10T13:20:39.937Z,5.25
2023-05-10T13:23:06.670Z,5.60
2023-05-10T13:25:35.114Z,5.72
2023-05-10T13:28:01.768Z,6.28
2023-05-10T13:30:29.629Z,6.47
2023-05-10T13:32:56.261Z,6.57
2023-05-10T13:35:23.062Z,6.65
2023-05-10T13:37:51.967Z,5.90
2023-05-10T13:40:18.849Z,6.70
2023-05-10T13:42:45.625Z,6.80
2023-05-10T13:45:13.236Z,6.55
2023-05-10T13:47:40.074Z,6.18
2023-05-10T13:50:07.473Z,6.32
2023-05-10T13:52:34.383Z,6.93
2023-05-10T13:55:00.930Z,6.75
2023-05-10T13:57:31.097Z,6.80
2023-05-10T13:59:58.182Z,6.47
2023-05-10T14:02:25.502Z,5.82
2023-05-10T14:04:52.340Z,7.05
2023-05-10T14:07:19.295Z,6.18
2023-05-10T14:09:45.910Z,5.82
2023-05-10T14:12:12.509Z,6.63
2023-05-10T14:14:39.163Z,6.18
2023-05-10T14:17:06.126Z,6.30
2023-05-10T14:19:34.865Z,6.05
2023-05-10T14:22:01.467Z,6.10
2023-05-10T14:24:28.147Z,5.97
2023-05-10T14:26:54.909Z,5.65
2023-05-10T14:29:22.152Z,4.95
2023-05-10T14:31:49.004Z,5.05
2023-05-10T14:34:15.726Z,4.90
2023-05-10T14:36:42.373Z,5.35
2023-05-10T14:39:10.791Z,6.03
2023-05-10T14:41:37.981Z,5.95
2023-05-10T14:44:04.593Z,6.00
2023-05-10T14:46:31.628Z,6.00
2023-05-10T14:48:58.243Z,6.45
2023-05-10T14:51:24.861Z,5.72
2023-05-10T14:53:51.448Z,6.95
2023-05-10T14:56:18.142Z,6.45
2023-05-10T14:58:44.833Z,6.40
2023-05-10T15:01:12.140Z,6.45
2023-05-10T15:03:39.154Z,6.85
2023-05-10T15:06:06.662Z,5.82
2023-05-10T15:08:33.254Z,5.10
2023-05-10T15:10:59.873Z,5.28
2023-05-10T15:13:26.712Z,5.50
2023-05-10T15:15:53.382Z,5.85
2023-05-10T15:18:20.077Z,5.72
2023-05-10T15:20:46.678Z,6.03
2023-05-10T15:23:13.396Z,5.00
2023-05-10T15:25:40.310Z,5.53
2023-05-10T15:28:06.950Z,5.43
2023-05-10T15:30:33.560Z,5.93
2023-05-10T15:33:00.286Z,5.07
2023-05-10T15:35:27.713Z,5.18
2023-05-10T15:37:54.275Z,5.05
2023-05-10T15:40:20.889Z,5.03
2023-05-10T15:42:47.557Z,4.35
2023-05-10T15:45:14.254Z,5.15
2023-05-10T15:47:41.084Z,4.32
2023-05-10T15:50:08.289Z,4.30
2023-05-10T15:52:35.970Z,5.35
2023-05-10T15:55:03.426Z,4.43
2023-05-10T15:57:30.418Z,4.03
2023-05-10T15:59:57.496Z,5.43
2023-05-10T16:02:24.246Z,6.32
2023-05-10T16:04:51.518Z,6.65
2023-05-10T16:07:18.167Z,6.00
2023-05-10T16:09:44.865Z,7.15
2023-05-10T16:12:14.427Z,5.70
2023-05-10T16:14:41.061Z,5.88
2023-05-10T16:17:09.152Z,5.93
2023-05-10T16:19:42.602Z,6.03
2023-05-10T16:22:09.319Z,5.25
2023-05-10T16:24:38.026Z,5.93
2023-05-10T16:27:07.343Z,5.80
2023-05-10T16:29:36.496Z,5.78
2023-05-10T16:32:08.098Z,6.03
2023-05-10T16:37:06.273Z,5.25
2023-05-10T16:39:32.881Z,5.43
2023-05-10T16:41:59.487Z,6.30
2023-05-10T16:44:28.574Z,6.63
2023-05-10T16:46:55.520Z,7.15
2023-05-10T16:49:23.666Z,6.90
2023-05-10T16:51:54.238Z,7.85
2023-05-10T16:54:21.847Z,6.80
2023-05-10T16:56:48.457Z,6.93
2023-05-10T16:59:15.096Z,5.50
2023-05-10T17:01:55.976Z,5.45
2023-05-10T17:04:23.184Z,6.10
2023-05-10T17:06:53.378Z,5.63
2023-05-10T17:09:20.530Z,5.25
2023-05-10T17:11:47.080Z,5.50
2023-05-10T17:14:14.367Z,5.28
2023-05-10T17:16:43.169Z,4.70
2023-05-10T17:19:13.577Z,4.90
2023-05-10T17:21:46.231Z,5.53
2023-05-10T17:24:15.800Z,4.43
2023-05-10T17:26:44.797Z,4.85
2023-05-10T17:29:13.834Z,4.38
2023-05-10T17:31:45.320Z,4.72
2023-05-10T17:34:11.926Z,4.82
2023-05-10T17:36:56.082Z,4.50
2023-05-10T17:39:23.930Z,5.35
2023-05-10T17:41:56.464Z,4.95
2023-05-10T17:44:28.231Z,5.50
2023-05-10T17:47:04.900Z,4.95
2023-05-10T17:49:33.701Z,4.97
2023-05-10T17:52:00.260Z,5.40
2023-05-10T17:54:29.566Z,5.20
2023-05-10T17:56:57.879Z,5.25
2023-05-10T17:59:24.503Z,4.43
2023-05-10T18:01:56.704Z,5.30
2023-05-10T18:04:25.728Z,5.07
2023-05-10T18:07:00.589Z,4.47
2023-05-10T18:09:28.116Z,4.78
2023-05-10T18:11:57.352Z,4.82
2023-05-10T18:14:39.952Z,4.57
2023-05-10T18:17:17.871Z,4.57
2023-05-10T18:19:44.495Z,4.53
2023-05-10T18:22:11.281Z,4.85
2023-05-10T18:24:39.476Z,4.55
2023-05-10T18:27:12.656Z,4.65
2023-05-10T18:29:42.180Z,4.95
2023-05-10T18:32:14.455Z,4.10
2023-05-10T18:37:11.250Z,3.20
2023-05-10T18:39:40.624Z,4.03
2023-05-10T18:42:10.165Z,4.57
2023-05-10T18:44:39.842Z,4.95
2023-05-10T18:47:06.576Z,4.55
2023-05-10T18:49:33.128Z,4.57
2023-05-10T18:52:02.224Z,4.10
2023-05-10T18:54:29.675Z,4.18
2023-05-10T18:56:59.418Z,4.38
2023-05-10T18:59:30.530Z,3.65
2023-05-10T19:01:57.698Z,4.13
2023-05-10T19:04:31.858Z,4.05
2023-05-10T19:06:59.503Z,4.00
2023-05-10T19:09:26.953Z,4.05
2023-05-10T19:11:53.590Z,3.85
2023-05-10T19:14:22.573Z,3.67
2023-05-10T19:17:01.314Z,4.00
2023-05-10T19:19:31.065Z,3.67
2023-05-10T19:22:03.622Z,4.00
2023-05-10T19:24:33.755Z,3.85
2023-05-10T19:27:03.590Z,4.43
2023-05-10T19:29:32.614Z,3.92
2023-05-10T19:32:00.358Z,4.45
2023-05-10T19:34:31.771Z,3.58
2023-05-10T19:36:58.334Z,3.60
2023-05-10T19:39:24.995Z,4.03
2023-05-10T19:41:51.657Z,3.83
2023-05-10T19:44:18.328Z,3.90
2023-05-10T19:46:45.535Z,3.88
2023-05-10T19:49:12.157Z,4.13
2023-05-10T19:51:39.657Z,3.67
2023-05-10T19:54:06.259Z,4.07
2023-05-10T19:56:35.034Z,3.88
2023-05-10T19:59:03.822Z,3.50
2023-05-10T20:01:32.515Z,3.60
2023-05-10T20:04:01.980Z,3.85
2023-05-10T20:06:28.776Z,3.92
2023-05-10T20:08:58.266Z,3.28
2023-05-10T20:11:25.839Z,3.50
2023-05-10T20:14:01.750Z,3.47
2023-05-10T20:16:31.409Z,3.75
2023-05-10T20:18:58.249Z,4.07
2023-05-10T20:21:33.351Z,3.40
2023-05-10T20:24:07.547Z,3.20
2023-05-10T20:26:38.127Z,3.55
2023-05-10T20:29:06.009Z,2.97
2023-05-10T20:31:35.132Z,3.58
2023-05-10T20:34:04.384Z,3.50
2023-05-10T20:36:33.234Z,3.47
2023-05-10T20:39:02.490Z,3.35
2023-05-10T20:41:36.609Z,3.35
2023-05-10T20:44:07.707Z,3.80
2023-05-10T20:46:37.574Z,3.78
2023-05-10T20:49:04.582Z,4.30
2023-05-10T20:51:44.686Z,3.25
2023-05-10T20:54:11.265Z,3.50
2023-05-10T20:56:40.469Z,4.03
2023-05-10T20:59:07.057Z,4.20
2023-05-10T21:01:36.332Z,3.72
2023-05-10T21:04:03.490Z,3.92
2023-05-10T21:06:32.716Z,3.35
2023-05-10T21:08:59.308Z,3.63
2023-05-10T21:11:26.016Z,3.75
2023-05-10T21:13:52.714Z,3.70
2023-05-10T21:16:20.042Z,4.35
2023-05-10T21:18:52.979Z,4.93
2023-05-10T21:21:19.613Z,5.75
2023-05-10T21:23:46.765Z,5.03
2023-05-10T21:26:13.674Z,5.75
2023-05-10T21:28:44.006Z,4.40
2023-05-10T21:31:15.474Z,4.85
2023-05-10T21:33:42.173Z,4.63
2023-05-10T21:36:09.373Z,4.57
2023-05-10T21:38:40.432Z,3.80
2023-05-10T21:41:10.539Z,4.35
2023-05-10T21:43:37.147Z,4.70
2023-05-10T21:46:10.382Z,5.88
2023-05-10T21:48:36.996Z,5.25
2023-05-10T21:51:03.646Z,5.68
2023-05-10T21:53:30.343Z,6.13
2023-05-10T21:56:01.191Z,6.35
2023-05-10T21:58:27.755Z,6.10
2023-05-10T22:00:59.041Z,6.60
2023-05-10T22:03:26.245Z,6.50
2023-05-10T22:05:52.982Z,6.22
2023-05-10T22:08:19.620Z,6.13
2023-05-10T22:10:46.195Z,6.40
2023-05-10T22:13:12.839Z,6.78
2023-05-10T22:15:39.447Z,6.75
2023-05-10T22:18:08.480Z,6.95
2023-05-10T22:20:35.032Z,6.95
2023-05-10T22:23:04.648Z,6.47
2023-05-10T22:25:33.666Z,7.18
2023-05-10T22:28:03.874Z,6.55
2023-05-10T22:30:33.256Z,6.35
2023-05-10T22:33:05.223Z,6.57
2023-05-10T22:35:31.890Z,7.22
2023-05-10T22:38:01.070Z,7.25
2023-05-10T22:40:29.470Z,7.20
2023-05-10T22:42:56.010Z,6.88
2023-05-10T22:45:22.601Z,7.07
2023-05-10T22:47:50.447Z,6.80
2023-05-10T22:50:19.449Z,7.13
2023-05-10T22:52:46.259Z,6.85
2023-05-10T22:55:12.867Z,7.30
2023-05-10T22:57:41.801Z,7.13
2023-05-10T23:00:11.504Z,7.25
2023-05-10T23:02:41.126Z,7.55
2023-05-10T23:05:17.454Z,7.25
2023-05-10T23:07:44.044Z,6.60
2023-05-10T23:10:13.962Z,7.18
2023-05-10T23:12:40.552Z,7.10
2023-05-10T23:15:07.520Z,6.55
2023-05-10T23:17:34.197Z,6.78
2023-05-10T23:20:01.006Z,6.95
2023-05-10T23:22:29.893Z,6.70
2023-05-10T23:24:58.057Z,7.50
2023-05-10T23:27:30.850Z,7.13
2023-05-10T23:29:57.983Z,8.35
2023-05-10T23:32:33.533Z,7.80
2023-05-10T23:35:03.965Z,9.02
2023-05-10T23:37:30.513Z,8.77
2023-05-10T23:39:57.203Z,9.60
2023-05-10T23:42:23.759Z,9.52
2023-05-10T23:44:55.605Z,10.75
2023-05-10T23:47:22.151Z,10.43
2023-05-10T23:49:50.053Z,11.57
2023-05-10T23:52:24.922Z,11.82
2023-05-10T23:54:55.937Z,11.65
2023-05-10T23:57:24.891Z,11.98
2023-05-10T23:59:53.807Z,11.68
